Huvudsida
METAR-TAF:

METAR-TAF

Flygplatser :

Archangelsk, Ryssland

latitud: 64-30N, longitud: 040-44E, höjd: 13 m

Aktuellt väderrapport

Denna rapport gjordes för 53 minuter sedan, klockan 04:00 UTC
Vind 4 kt från ost/nordost
Temperatur -19°C
Fuktighet 84%
Tryck 1026 hPa
Sikt 10 km eller mer
Få moln på en höjd av 2000 ft

METAR: ULAA 230400Z 06002MPS 9999 FEW020 M19/M21 Q1026 R08/950548 NOSIG RMK QFE768/1025

Tid: 07:53 (04:53 UTC)

Väderprognos

Denna rapport gjordes för 2 timmar och 57 minuter sedan, klockan 01:56 UTC
Prognos gäller från 23 kl. 03 UTC till 24 kl. 03 UTC
Vind 6 kt från nordost
Sikt: 6000 m
Brutna moln på en höjd av 1100 ft
Temporärt
från 23 kl. 03 UTC till 23 kl. 07 UTC
Sikt: 2100 m
Brutna moln på en höjd av 700 ft
lätt snö, fuktdis
Temporärt
från 23 kl. 07 UTC till 23 kl. 15 UTC
Vind 6 kt från nord/nordost
Sikt: 3100 m
lätt snö, fuktdis

TAF: ULAA 230156Z 2303/2403 05003MPS 6000 BKN011 TEMPO 2303/2307 2100 -SN BR BKN007 TEMPO 2307/2315 03003MPS 3100 -SN BR

Aktuella väderrapporter och prognoser från 4000 flygplatser (METAR- och TAF-rapporter).

De tillgängliga stationerna syns som gula och röda prickar på kartan.

För musen över prickarna för att se namnen på stationerna.

Klicka sedan för att få väderrapporter och prognoser.

För att ändra kartan: Klicka på de gröna knapparna med ett svart kors på för att zooma in; den gröna knappen med ett streck på för att zooma ut; eller på de gröna pilarna för angränsande kartor.


METAR-TAF: